Dahlonega, GA (30533)

1:12 PM EDT on May 27, 2017 (GMT -0400)
University of North Georgia Dahlonega WeatherSTEM | | Change Station

Elev 1538 ft 34.53 °N, 83.99 °W | Updated 27 seconds ago

Partly Cloudy
Partly Cloudy
78.8 °F
Feels Like 81 °F
N
11.0
Wind Variable Wind from SW

Today
High -- | Low -- °F
--% Chance of Precip.
Yesterday
High -- | Low -- °F
Precip. -- in
Pressure 30.04 in
Visibility 10.0 miles
Clouds Few 3400 ft
Heat Index 81 °F
Dew Point 66 °F
Humidity 66%
Rainfall 0.00 in
Snow Depth Not available.
6:26 AM 8:40 PM
Waxing Crescent, 5% visible
METAR KGVL 271653Z AUTO 25010KT 10SM FEW034 27/18 A3008 RMK AO2 SLP170 T02670183
Pressure 30.04 in
Visibility 10.0 miles
Clouds Few 3400 ft
Heat Index 81 °F
Dew Point 66 °F
Humidity 66%
Rainfall 0.00 in
Snow Depth Not available.
6:26 AM 8:40 PM
Waxing Crescent, 5% visible
METAR KGVL 271653Z AUTO 25010KT 10SM FEW034 27/18 A3008 RMK AO2 SLP170 T02670183

Get Severe Weather Alerts

Thanks for signing up!

Be on the lookout for a verification email in your inbox.

You'll start receiving the daily forecast at 6 AM.

×

10-Day Weather Forecast

Almanac

Astronomy

May. 27, 2017 Rise Set
Actual Time
Civil Twilight
Nautical Twilight
Astronomical Twilight
Moon
Length of Visible Light
Length of Day
Tomorrow will be .
, % of the Moon is Illuminated

Today's Extremes

State Highs State Lows

Community

WunderPhotos

Category 6

Welcome to Category 6. This is the collective home for Weather Underground's featured writeups by Dr. Jeff Masters (right), Bob Henson (left), Chris Burt, and other regular contributors.

Nearby

Air Quality

  Air Quality AQ Index Pollutant
Not available.

Snow Depth

Station Depth Elevation

Earthquake Activity

City Distance Mag. Time & Date
Minimum magnitude displayed is 2.5.

Coastal Water Temperatures

Place Temperature

Stations

Nearby Weather Stations

Station Location Temp. Windchill Dew Point Humidity Wind Precip. Elev Updated Type
                   

Watches & Warnings

There are currently no watches in effect.